sensor_id;sensor_type;location;lat;lon;timestamp;P1;durP1;ratioP1;P2;durP2;ratioP2
17852;SDS011;9052;53.494;14.376;2023-04-06T00:02:17;20.37;;;10.00;;
17852;SDS011;9052;53.494;14.376;2023-04-06T00:04:44;17.80;;;10.63;;
17852;SDS011;9052;53.494;14.376;2023-04-06T00:07:11;22.37;;;11.33;;
17852;SDS011;9052;53.494;14.376;2023-04-06T00:09:37;25.23;;;8.90;;
17852;SDS011;9052;53.494;14.376;2023-04-06T00:12:04;19.40;;;9.33;;
17852;SDS011;9052;53.494;14.376;2023-04-06T00:14:31;11.57;;;7.50;;
17852;SDS011;9052;53.494;14.376;2023-04-06T00:16:58;20.00;;;9.73;;
17852;SDS011;9052;53.494;14.376;2023-04-06T00:19:26;14.50;;;7.57;;
17852;SDS011;9052;53.494;14.376;2023-04-06T00:21:53;12.07;;;7.23;;
17852;SDS011;9052;53.494;14.376;2023-04-06T00:24:20;13.63;;;7.60;;
17852;SDS011;9052;53.494;14.376;2023-04-06T00:26:46;20.03;;;7.13;;
17852;SDS011;9052;53.494;14.376;2023-04-06T00:29:13;18.50;;;7.90;;
17852;SDS011;9052;53.494;14.376;2023-04-06T00:31:40;10.07;;;6.80;;
17852;SDS011;9052;53.494;14.376;2023-04-06T00:34:07;16.40;;;9.10;;
17852;SDS011;9052;53.494;14.376;2023-04-06T00:36:35;22.03;;;7.23;;
17852;SDS011;9052;53.494;14.376;2023-04-06T00:39:01;9.03;;;7.90;;
17852;SDS011;9052;53.494;14.376;2023-04-06T00:41:28;30.87;;;7.93;;
17852;SDS011;9052;53.494;14.376;2023-04-06T00:43:56;8.20;;;7.03;;
17852;SDS011;9052;53.494;14.376;2023-04-06T00:46:22;17.23;;;7.77;;
17852;SDS011;9052;53.494;14.376;2023-04-06T00:48:49;18.20;;;9.40;;
17852;SDS011;9052;53.494;14.376;2023-04-06T00:51:16;14.57;;;8.17;;
17852;SDS011;9052;53.494;14.376;2023-04-06T00:53:44;10.83;;;8.43;;
17852;SDS011;9052;53.494;14.376;2023-04-06T00:56:11;17.43;;;9.93;;
17852;SDS011;9052;53.494;14.376;2023-04-06T00:58:38;16.00;;;8.57;;
17852;SDS011;9052;53.494;14.376;2023-04-06T01:01:05;14.10;;;7.47;;
17852;SDS011;9052;53.494;14.376;2023-04-06T01:03:32;11.90;;;9.53;;
17852;SDS011;9052;53.494;14.376;2023-04-06T01:05:59;25.73;;;8.90;;
17852;SDS011;9052;53.494;14.376;2023-04-06T01:08:25;23.73;;;9.10;;
17852;SDS011;9052;53.494;14.376;2023-04-06T01:10:54;15.80;;;7.90;;
17852;SDS011;9052;53.494;14.376;2023-04-06T01:13:21;11.80;;;8.07;;
17852;SDS011;9052;53.494;14.376;2023-04-06T01:15:48;17.63;;;9.80;;
17852;SDS011;9052;53.494;14.376;2023-04-06T01:18:15;12.97;;;9.63;;
17852;SDS011;9052;53.494;14.376;2023-04-06T01:20:41;14.50;;;9.07;;
17852;SDS011;9052;53.494;14.376;2023-04-06T01:23:10;17.23;;;10.07;;
17852;SDS011;9052;53.494;14.376;2023-04-06T01:25:36;14.77;;;8.10;;
17852;SDS011;9052;53.494;14.376;2023-04-06T01:28:03;16.77;;;9.37;;
17852;SDS011;9052;53.494;14.376;2023-04-06T01:30:30;14.10;;;8.03;;
17852;SDS011;9052;53.494;14.376;2023-04-06T01:32:56;13.50;;;9.37;;
17852;SDS011;9052;53.494;14.376;2023-04-06T01:35:25;12.80;;;7.90;;
17852;SDS011;9052;53.494;14.376;2023-04-06T01:37:52;15.77;;;7.97;;
17852;SDS011;9052;53.494;14.376;2023-04-06T01:40:20;14.10;;;10.20;;
17852;SDS011;9052;53.494;14.376;2023-04-06T01:42:47;19.77;;;9.97;;
17852;SDS011;9052;53.494;14.376;2023-04-06T01:45:14;22.47;;;9.77;;
17852;SDS011;9052;53.494;14.376;2023-04-06T01:47:40;10.03;;;8.33;;
17852;SDS011;9052;53.494;14.376;2023-04-06T01:50:07;12.67;;;9.23;;
17852;SDS011;9052;53.494;14.376;2023-04-06T01:52:35;15.00;;;10.10;;
17852;SDS011;9052;53.494;14.376;2023-04-06T01:55:01;14.37;;;10.30;;
17852;SDS011;9052;53.494;14.376;2023-04-06T01:57:30;15.73;;;10.60;;
17852;SDS011;9052;53.494;14.376;2023-04-06T01:59:56;13.93;;;9.40;;
17852;SDS011;9052;53.494;14.376;2023-04-06T02:02:23;17.83;;;8.63;;
17852;SDS011;9052;53.494;14.376;2023-04-06T02:04:50;16.37;;;9.30;;
17852;SDS011;9052;53.494;14.376;2023-04-06T02:07:16;15.00;;;10.43;;
17852;SDS011;9052;53.494;14.376;2023-04-06T02:09:43;9.70;;;8.20;;
17852;SDS011;9052;53.494;14.376;2023-04-06T02:12:10;12.43;;;9.10;;
17852;SDS011;9052;53.494;14.376;2023-04-06T02:14:38;17.83;;;8.83;;
17852;SDS011;9052;53.494;14.376;2023-04-06T02:17:05;16.60;;;8.90;;
17852;SDS011;9052;53.494;14.376;2023-04-06T02:19:32;16.10;;;8.30;;
17852;SDS011;9052;53.494;14.376;2023-04-06T02:21:58;12.47;;;8.53;;
17852;SDS011;9052;53.494;14.376;2023-04-06T02:24:25;10.00;;;8.00;;
17852;SDS011;9052;53.494;14.376;2023-04-06T02:26:52;12.10;;;8.50;;
17852;SDS011;9052;53.494;14.376;2023-04-06T02:29:18;13.53;;;8.60;;
17852;SDS011;9052;53.494;14.376;2023-04-06T02:31:46;13.90;;;9.63;;
17852;SDS011;9052;53.494;14.376;2023-04-06T02:34:13;15.60;;;9.00;;
17852;SDS011;9052;53.494;14.376;2023-04-06T02:36:42;19.23;;;10.10;;
17852;SDS011;9052;53.494;14.376;2023-04-06T02:39:09;10.90;;;8.33;;
17852;SDS011;9052;53.494;14.376;2023-04-06T02:41:36;15.97;;;8.97;;
17852;SDS011;9052;53.494;14.376;2023-04-06T02:44:03;12.87;;;9.63;;
17852;SDS011;9052;53.494;14.376;2023-04-06T02:46:30;13.20;;;10.20;;
17852;SDS011;9052;53.494;14.376;2023-04-06T02:48:58;13.63;;;9.33;;
17852;SDS011;9052;53.494;14.376;2023-04-06T02:51:25;15.90;;;9.60;;
17852;SDS011;9052;53.494;14.376;2023-04-06T02:53:52;11.00;;;8.20;;
17852;SDS011;9052;53.494;14.376;2023-04-06T02:56:19;9.60;;;8.33;;
17852;SDS011;9052;53.494;14.376;2023-04-06T02:58:46;14.10;;;9.07;;
17852;SDS011;9052;53.494;14.376;2023-04-06T03:01:13;14.07;;;8.50;;
17852;SDS011;9052;53.494;14.376;2023-04-06T03:03:40;19.30;;;9.70;;
17852;SDS011;9052;53.494;14.376;2023-04-06T03:06:08;15.67;;;9.20;;
17852;SDS011;9052;53.494;14.376;2023-04-06T03:08:35;16.00;;;9.20;;
17852;SDS011;9052;53.494;14.376;2023-04-06T03:11:02;12.27;;;8.87;;
17852;SDS011;9052;53.494;14.376;2023-04-06T03:13:28;20.80;;;9.53;;
17852;SDS011;9052;53.494;14.376;2023-04-06T03:15:55;13.40;;;9.50;;
17852;SDS011;9052;53.494;14.376;2023-04-06T03:18:22;16.70;;;9.10;;
17852;SDS011;9052;53.494;14.376;2023-04-06T03:20:50;10.60;;;8.43;;
17852;SDS011;9052;53.494;14.376;2023-04-06T03:23:20;12.70;;;8.73;;
17852;SDS011;9052;53.494;14.376;2023-04-06T03:25:47;16.43;;;9.97;;
17852;SDS011;9052;53.494;14.376;2023-04-06T03:28:13;14.57;;;8.93;;
17852;SDS011;9052;53.494;14.376;2023-04-06T03:30:41;12.87;;;8.87;;
17852;SDS011;9052;53.494;14.376;2023-04-06T03:33:07;12.57;;;9.00;;
17852;SDS011;9052;53.494;14.376;2023-04-06T03:35:34;19.63;;;9.83;;
17852;SDS011;9052;53.494;14.376;2023-04-06T03:38:01;17.00;;;9.87;;
17852;SDS011;9052;53.494;14.376;2023-04-06T03:40:29;17.67;;;9.77;;
17852;SDS011;9052;53.494;14.376;2023-04-06T03:42:56;12.23;;;9.23;;
17852;SDS011;9052;53.494;14.376;2023-04-06T03:45:23;16.50;;;9.03;;
17852;SDS011;9052;53.494;14.376;2023-04-06T03:47:50;14.03;;;8.97;;
17852;SDS011;9052;53.494;14.376;2023-04-06T03:50:16;24.93;;;10.07;;
17852;SDS011;9052;53.494;14.376;2023-04-06T03:52:43;18.07;;;8.77;;
17852;SDS011;9052;53.494;14.376;2023-04-06T03:55:10;16.03;;;10.10;;
17852;SDS011;9052;53.494;14.376;2023-04-06T03:57:38;17.90;;;10.93;;
17852;SDS011;9052;53.494;14.376;2023-04-06T04:00:05;14.70;;;9.80;;
17852;SDS011;9052;53.494;14.376;2023-04-06T04:02:32;17.10;;;10.07;;
17852;SDS011;9052;53.494;14.376;2023-04-06T04:04:59;15.60;;;10.33;;
17852;SDS011;9052;53.494;14.376;2023-04-06T04:07:26;15.03;;;9.00;;
17852;SDS011;9052;53.494;14.376;2023-04-06T04:09:53;15.53;;;9.83;;
17852;SDS011;9052;53.494;14.376;2023-04-06T04:12:19;16.67;;;10.10;;
17852;SDS011;9052;53.494;14.376;2023-04-06T04:14:47;13.10;;;9.73;;
17852;SDS011;9052;53.494;14.376;2023-04-06T04:17:14;15.40;;;8.30;;
17852;SDS011;9052;53.494;14.376;2023-04-06T04:19:41;12.80;;;9.97;;
17852;SDS011;9052;53.494;14.376;2023-04-06T04:22:08;13.73;;;9.07;;
17852;SDS011;9052;53.494;14.376;2023-04-06T04:24:35;24.80;;;9.67;;
17852;SDS011;9052;53.494;14.376;2023-04-06T04:27:01;26.50;;;10.37;;
17852;SDS011;9052;53.494;14.376;2023-04-06T04:29:29;18.17;;;9.80;;
17852;SDS011;9052;53.494;14.376;2023-04-06T04:31:57;20.43;;;9.83;;
17852;SDS011;9052;53.494;14.376;2023-04-06T04:34:24;16.03;;;9.87;;
17852;SDS011;9052;53.494;14.376;2023-04-06T04:36:51;12.00;;;9.50;;
17852;SDS011;9052;53.494;14.376;2023-04-06T04:39:17;15.87;;;9.43;;
17852;SDS011;9052;53.494;14.376;2023-04-06T04:41:44;22.50;;;10.87;;
17852;SDS011;9052;53.494;14.376;2023-04-06T04:44:11;16.77;;;9.83;;
17852;SDS011;9052;53.494;14.376;2023-04-06T04:46:38;15.27;;;9.67;;
17852;SDS011;9052;53.494;14.376;2023-04-06T04:49:07;17.80;;;10.33;;
17852;SDS011;9052;53.494;14.376;2023-04-06T04:51:34;16.47;;;10.33;;
17852;SDS011;9052;53.494;14.376;2023-04-06T04:54:01;16.03;;;10.63;;
17852;SDS011;9052;53.494;14.376;2023-04-06T04:56:28;23.60;;;10.60;;
17852;SDS011;9052;53.494;14.376;2023-04-06T04:58:54;15.83;;;9.80;;
17852;SDS011;9052;53.494;14.376;2023-04-06T05:01:21;20.03;;;10.53;;
17852;SDS011;9052;53.494;14.376;2023-04-06T05:03:48;11.57;;;8.90;;
17852;SDS011;9052;53.494;14.376;2023-04-06T05:06:16;17.00;;;9.80;;
17852;SDS011;9052;53.494;14.376;2023-04-06T05:08:43;16.40;;;9.47;;
17852;SDS011;9052;53.494;14.376;2023-04-06T05:11:10;22.20;;;10.33;;
17852;SDS011;9052;53.494;14.376;2023-04-06T05:13:37;14.03;;;9.90;;
17852;SDS011;9052;53.494;14.376;2023-04-06T05:16:04;15.73;;;9.17;;
17852;SDS011;9052;53.494;14.376;2023-04-06T05:18:30;13.67;;;9.20;;
17852;SDS011;9052;53.494;14.376;2023-04-06T05:20:57;20.83;;;10.50;;
17852;SDS011;9052;53.494;14.376;2023-04-06T05:23:25;20.23;;;10.87;;
17852;SDS011;9052;53.494;14.376;2023-04-06T05:25:52;22.53;;;10.30;;
17852;SDS011;9052;53.494;14.376;2023-04-06T05:28:18;17.27;;;9.23;;
17852;SDS011;9052;53.494;14.376;2023-04-06T05:30:45;7.83;;;7.00;;
17852;SDS011;9052;53.494;14.376;2023-04-06T05:33:12;15.63;;;9.70;;
17852;SDS011;9052;53.494;14.376;2023-04-06T05:35:38;16.20;;;8.87;;
17852;SDS011;9052;53.494;14.376;2023-04-06T05:38:07;27.83;;;9.10;;
17852;SDS011;9052;53.494;14.376;2023-04-06T05:40:35;20.40;;;10.80;;
17852;SDS011;9052;53.494;14.376;2023-04-06T05:43:01;13.23;;;8.93;;
17852;SDS011;9052;53.494;14.376;2023-04-06T05:45:28;14.37;;;7.27;;
17852;SDS011;9052;53.494;14.376;2023-04-06T05:47:55;12.67;;;8.60;;
17852;SDS011;9052;53.494;14.376;2023-04-06T05:50:22;32.53;;;9.60;;
17852;SDS011;9052;53.494;14.376;2023-04-06T05:52:48;13.00;;;8.10;;
17852;SDS011;9052;53.494;14.376;2023-04-06T05:55:15;13.43;;;8.53;;
17852;SDS011;9052;53.494;14.376;2023-04-06T05:57:43;16.57;;;7.57;;
17852;SDS011;9052;53.494;14.376;2023-04-06T06:00:10;12.27;;;8.07;;
17852;SDS011;9052;53.494;14.376;2023-04-06T06:02:38;11.73;;;7.97;;
17852;SDS011;9052;53.494;14.376;2023-04-06T06:05:07;35.43;;;8.53;;
17852;SDS011;9052;53.494;14.376;2023-04-06T06:07:34;14.53;;;7.80;;
17852;SDS011;9052;53.494;14.376;2023-04-06T06:10:01;16.73;;;8.57;;
17852;SDS011;9052;53.494;14.376;2023-04-06T06:12:28;10.30;;;5.87;;
17852;SDS011;9052;53.494;14.376;2023-04-06T06:14:57;12.07;;;7.30;;
17852;SDS011;9052;53.494;14.376;2023-04-06T06:17:23;12.43;;;8.23;;
17852;SDS011;9052;53.494;14.376;2023-04-06T06:19:50;25.77;;;8.30;;
17852;SDS011;9052;53.494;14.376;2023-04-06T06:22:17;23.73;;;9.70;;
17852;SDS011;9052;53.494;14.376;2023-04-06T06:24:43;14.70;;;8.30;;
17852;SDS011;9052;53.494;14.376;2023-04-06T06:27:10;9.37;;;6.00;;
17852;SDS011;9052;53.494;14.376;2023-04-06T06:29:37;11.80;;;7.60;;
17852;SDS011;9052;53.494;14.376;2023-04-06T06:32:05;17.30;;;7.40;;
17852;SDS011;9052;53.494;14.376;2023-04-06T06:34:34;13.67;;;7.63;;
17852;SDS011;9052;53.494;14.376;2023-04-06T06:37:00;16.20;;;8.40;;
17852;SDS011;9052;53.494;14.376;2023-04-06T06:39:27;12.07;;;6.50;;
17852;SDS011;9052;53.494;14.376;2023-04-06T06:41:54;8.37;;;6.33;;
17852;SDS011;9052;53.494;14.376;2023-04-06T06:44:21;10.27;;;6.97;;
17852;SDS011;9052;53.494;14.376;2023-04-06T06:46:48;9.53;;;6.17;;
17852;SDS011;9052;53.494;14.376;2023-04-06T06:49:16;23.80;;;7.00;;
17852;SDS011;9052;53.494;14.376;2023-04-06T06:51:43;14.93;;;6.53;;
17852;SDS011;9052;53.494;14.376;2023-04-06T06:54:10;11.40;;;5.40;;
17852;SDS011;9052;53.494;14.376;2023-04-06T06:56:37;11.20;;;6.17;;
17852;SDS011;9052;53.494;14.376;2023-04-06T06:59:04;9.83;;;6.60;;
17852;SDS011;9052;53.494;14.376;2023-04-06T07:01:32;15.07;;;8.50;;
17852;SDS011;9052;53.494;14.376;2023-04-06T07:03:58;7.43;;;5.23;;
17852;SDS011;9052;53.494;14.376;2023-04-06T07:06:26;20.00;;;5.77;;
17852;SDS011;9052;53.494;14.376;2023-04-06T07:08:53;8.27;;;6.60;;
17852;SDS011;9052;53.494;14.376;2023-04-06T07:11:20;15.80;;;6.27;;
17852;SDS011;9052;53.494;14.376;2023-04-06T07:13:47;11.80;;;7.33;;
17852;SDS011;9052;53.494;14.376;2023-04-06T07:16:13;12.87;;;7.23;;
17852;SDS011;9052;53.494;14.376;2023-04-06T07:18:40;11.43;;;6.43;;
17852;SDS011;9052;53.494;14.376;2023-04-06T07:21:07;14.97;;;6.63;;
17852;SDS011;9052;53.494;14.376;2023-04-06T07:23:35;14.53;;;6.83;;
17852;SDS011;9052;53.494;14.376;2023-04-06T07:26:01;7.27;;;5.77;;
17852;SDS011;9052;53.494;14.376;2023-04-06T07:28:28;16.33;;;6.33;;
17852;SDS011;9052;53.494;14.376;2023-04-06T07:30:55;8.70;;;5.97;;
17852;SDS011;9052;53.494;14.376;2023-04-06T07:33:21;11.40;;;6.17;;
17852;SDS011;9052;53.494;14.376;2023-04-06T07:35:48;12.23;;;5.63;;
17852;SDS011;9052;53.494;14.376;2023-04-06T07:38:15;7.43;;;5.53;;
17852;SDS011;9052;53.494;14.376;2023-04-06T07:40:43;11.20;;;5.30;;
17852;SDS011;9052;53.494;14.376;2023-04-06T07:43:10;19.90;;;4.73;;
17852;SDS011;9052;53.494;14.376;2023-04-06T07:45:36;10.23;;;5.97;;
17852;SDS011;9052;53.494;14.376;2023-04-06T07:48:03;12.97;;;6.07;;
17852;SDS011;9052;53.494;14.376;2023-04-06T07:50:30;7.90;;;4.80;;
17852;SDS011;9052;53.494;14.376;2023-04-06T07:52:57;7.47;;;4.90;;
17852;SDS011;9052;53.494;14.376;2023-04-06T07:55:23;15.17;;;5.60;;
17852;SDS011;9052;53.494;14.376;2023-04-06T07:57:51;10.30;;;4.70;;
17852;SDS011;9052;53.494;14.376;2023-04-06T08:00:18;7.80;;;6.10;;
17852;SDS011;9052;53.494;14.376;2023-04-06T08:02:45;6.33;;;4.90;;
17852;SDS011;9052;53.494;14.376;2023-04-06T08:05:12;6.40;;;4.37;;
17852;SDS011;9052;53.494;14.376;2023-04-06T08:07:39;8.67;;;4.50;;
17852;SDS011;9052;53.494;14.376;2023-04-06T08:10:06;4.13;;;3.63;;
17852;SDS011;9052;53.494;14.376;2023-04-06T08:12:34;9.23;;;5.03;;
17852;SDS011;9052;53.494;14.376;2023-04-06T08:15:02;7.23;;;3.13;;
17852;SDS011;9052;53.494;14.376;2023-04-06T08:17:29;4.80;;;4.03;;
17852;SDS011;9052;53.494;14.376;2023-04-06T08:19:58;9.40;;;4.20;;
17852;SDS011;9052;53.494;14.376;2023-04-06T08:22:26;4.83;;;3.87;;
17852;SDS011;9052;53.494;14.376;2023-04-06T08:24:52;4.37;;;2.63;;
17852;SDS011;9052;53.494;14.376;2023-04-06T08:27:19;5.03;;;3.73;;
17852;SDS011;9052;53.494;14.376;2023-04-06T08:29:46;2.97;;;2.70;;
17852;SDS011;9052;53.494;14.376;2023-04-06T08:32:15;6.67;;;3.33;;
17852;SDS011;9052;53.494;14.376;2023-04-06T08:34:41;8.83;;;3.70;;
17852;SDS011;9052;53.494;14.376;2023-04-06T08:37:08;4.03;;;3.63;;
17852;SDS011;9052;53.494;14.376;2023-04-06T08:39:35;5.73;;;3.90;;
17852;SDS011;9052;53.494;14.376;2023-04-06T08:42:01;4.73;;;3.10;;
17852;SDS011;9052;53.494;14.376;2023-04-06T08:44:28;12.43;;;3.80;;
17852;SDS011;9052;53.494;14.376;2023-04-06T08:46:55;4.90;;;3.70;;
17852;SDS011;9052;53.494;14.376;2023-04-06T08:49:24;2.83;;;2.63;;
17852;SDS011;9052;53.494;14.376;2023-04-06T08:51:51;3.90;;;3.17;;
17852;SDS011;9052;53.494;14.376;2023-04-06T08:54:18;4.57;;;4.00;;
17852;SDS011;9052;53.494;14.376;2023-04-06T08:56:44;4.70;;;3.60;;
17852;SDS011;9052;53.494;14.376;2023-04-06T08:59:12;4.63;;;3.90;;
17852;SDS011;9052;53.494;14.376;2023-04-06T09:01:40;10.47;;;4.03;;
17852;SDS011;9052;53.494;14.376;2023-04-06T09:04:10;3.47;;;3.17;;
17852;SDS011;9052;53.494;14.376;2023-04-06T09:06:39;3.07;;;2.67;;
17852;SDS011;9052;53.494;14.376;2023-04-06T09:09:05;7.47;;;4.17;;
17852;SDS011;9052;53.494;14.376;2023-04-06T09:11:45;4.70;;;3.73;;
17852;SDS011;9052;53.494;14.376;2023-04-06T09:14:12;5.50;;;3.80;;
17852;SDS011;9052;53.494;14.376;2023-04-06T09:16:40;4.03;;;3.63;;
17852;SDS011;9052;53.494;14.376;2023-04-06T09:19:07;6.00;;;3.50;;
17852;SDS011;9052;53.494;14.376;2023-04-06T09:21:35;5.20;;;3.43;;
17852;SDS011;9052;53.494;14.376;2023-04-06T09:24:03;4.63;;;3.10;;
17852;SDS011;9052;53.494;14.376;2023-04-06T09:26:32;5.27;;;3.40;;
17852;SDS011;9052;53.494;14.376;2023-04-06T09:29:10;4.27;;;3.30;;
17852;SDS011;9052;53.494;14.376;2023-04-06T09:31:37;4.20;;;3.50;;
17852;SDS011;9052;53.494;14.376;2023-04-06T09:34:03;3.43;;;3.13;;
17852;SDS011;9052;53.494;14.376;2023-04-06T09:36:30;4.90;;;3.20;;
17852;SDS011;9052;53.494;14.376;2023-04-06T09:38:58;8.07;;;3.70;;
17852;SDS011;9052;53.494;14.376;2023-04-06T09:41:28;3.70;;;3.10;;
17852;SDS011;9052;53.494;14.376;2023-04-06T09:44:02;5.27;;;3.43;;
17852;SDS011;9052;53.494;14.376;2023-04-06T09:46:31;4.83;;;4.30;;
17852;SDS011;9052;53.494;14.376;2023-04-06T09:48:59;7.03;;;3.70;;
17852;SDS011;9052;53.494;14.376;2023-04-06T09:51:26;4.70;;;3.83;;
17852;SDS011;9052;53.494;14.376;2023-04-06T09:53:56;5.57;;;3.63;;
17852;SDS011;9052;53.494;14.376;2023-04-06T09:56:28;6.27;;;3.63;;
17852;SDS011;9052;53.494;14.376;2023-04-06T09:59:02;3.60;;;3.30;;
17852;SDS011;9052;53.494;14.376;2023-04-06T10:01:32;4.10;;;3.20;;
17852;SDS011;9052;53.494;14.376;2023-04-06T10:04:03;4.30;;;3.57;;
17852;SDS011;9052;53.494;14.376;2023-04-06T10:06:35;9.30;;;3.27;;
17852;SDS011;9052;53.494;14.376;2023-04-06T10:09:02;3.40;;;3.10;;
17852;SDS011;9052;53.494;14.376;2023-04-06T10:11:32;5.07;;;3.77;;
17852;SDS011;9052;53.494;14.376;2023-04-06T10:13:58;2.77;;;2.53;;
17852;SDS011;9052;53.494;14.376;2023-04-06T10:16:25;3.80;;;3.07;;
17852;SDS011;9052;53.494;14.376;2023-04-06T10:18:54;9.07;;;3.57;;
17852;SDS011;9052;53.494;14.376;2023-04-06T10:21:23;6.33;;;3.93;;
17852;SDS011;9052;53.494;14.376;2023-04-06T10:23:54;4.00;;;3.00;;
17852;SDS011;9052;53.494;14.376;2023-04-06T10:26:24;4.20;;;3.20;;
17852;SDS011;9052;53.494;14.376;2023-04-06T10:28:52;9.87;;;3.40;;
17852;SDS011;9052;53.494;14.376;2023-04-06T10:31:25;10.20;;;3.30;;
17852;SDS011;9052;53.494;14.376;2023-04-06T10:33:53;7.57;;;3.40;;
17852;SDS011;9052;53.494;14.376;2023-04-06T10:36:22;5.13;;;3.50;;
17852;SDS011;9052;53.494;14.376;2023-04-06T10:38:53;4.37;;;3.30;;
17852;SDS011;9052;53.494;14.376;2023-04-06T10:41:20;4.53;;;3.13;;
17852;SDS011;9052;53.494;14.376;2023-04-06T10:43:54;3.93;;;2.87;;
17852;SDS011;9052;53.494;14.376;2023-04-06T10:46:24;5.00;;;3.10;;
17852;SDS011;9052;53.494;14.376;2023-04-06T10:48:52;3.20;;;2.70;;
17852;SDS011;9052;53.494;14.376;2023-04-06T10:51:19;3.20;;;2.93;;
17852;SDS011;9052;53.494;14.376;2023-04-06T10:53:52;3.90;;;2.90;;
17852;SDS011;9052;53.494;14.376;2023-04-06T10:56:21;3.13;;;2.90;;
17852;SDS011;9052;53.494;14.376;2023-04-06T10:58:49;4.97;;;2.63;;
17852;SDS011;9052;53.494;14.376;2023-04-06T11:01:19;8.87;;;2.90;;
17852;SDS011;9052;53.494;14.376;2023-04-06T11:03:47;2.73;;;2.23;;
17852;SDS011;9052;53.494;14.376;2023-04-06T11:06:18;7.00;;;2.37;;
17852;SDS011;9052;53.494;14.376;2023-04-06T11:08:46;3.80;;;3.27;;
17852;SDS011;9052;53.494;14.376;2023-04-06T11:11:13;4.20;;;2.30;;
17852;SDS011;9052;53.494;14.376;2023-04-06T11:13:44;3.17;;;2.87;;
17852;SDS011;9052;53.494;14.376;2023-04-06T11:16:14;3.77;;;2.60;;
17852;SDS011;9052;53.494;14.376;2023-04-06T11:18:53;2.40;;;2.20;;
17852;SDS011;9052;53.494;14.376;2023-04-06T11:21:31;3.27;;;2.97;;
17852;SDS011;9052;53.494;14.376;2023-04-06T11:24:05;3.93;;;2.70;;
17852;SDS011;9052;53.494;14.376;2023-04-06T11:26:36;3.00;;;2.67;;
17852;SDS011;9052;53.494;14.376;2023-04-06T11:29:03;5.43;;;2.00;;
17852;SDS011;9052;53.494;14.376;2023-04-06T11:31:30;5.13;;;2.10;;
17852;SDS011;9052;53.494;14.376;2023-04-06T11:33:59;3.10;;;2.70;;
17852;SDS011;9052;53.494;14.376;2023-04-06T11:36:26;4.43;;;3.60;;
17852;SDS011;9052;53.494;14.376;2023-04-06T11:38:53;4.70;;;3.13;;
17852;SDS011;9052;53.494;14.376;2023-04-06T11:41:22;3.53;;;2.87;;
17852;SDS011;9052;53.494;14.376;2023-04-06T11:43:50;5.90;;;2.70;;
17852;SDS011;9052;53.494;14.376;2023-04-06T11:46:17;3.57;;;3.20;;
17852;SDS011;9052;53.494;14.376;2023-04-06T11:48:44;4.57;;;2.83;;
17852;SDS011;9052;53.494;14.376;2023-04-06T11:51:13;4.43;;;3.30;;
17852;SDS011;9052;53.494;14.376;2023-04-06T11:53:47;2.60;;;2.40;;
17852;SDS011;9052;53.494;14.376;2023-04-06T11:56:22;14.20;;;4.03;;
17852;SDS011;9052;53.494;14.376;2023-04-06T11:58:50;3.07;;;2.83;;
17852;SDS011;9052;53.494;14.376;2023-04-06T12:01:16;6.03;;;2.87;;
17852;SDS011;9052;53.494;14.376;2023-04-06T12:03:43;2.53;;;2.33;;
17852;SDS011;9052;53.494;14.376;2023-04-06T12:06:10;6.10;;;2.87;;
17852;SDS011;9052;53.494;14.376;2023-04-06T12:08:38;6.30;;;3.10;;
17852;SDS011;9052;53.494;14.376;2023-04-06T12:11:08;5.50;;;3.17;;
17852;SDS011;9052;53.494;14.376;2023-04-06T12:13:34;3.03;;;2.83;;
17852;SDS011;9052;53.494;14.376;2023-04-06T12:16:01;4.23;;;3.00;;
17852;SDS011;9052;53.494;14.376;2023-04-06T12:18:29;4.97;;;3.50;;
17852;SDS011;9052;53.494;14.376;2023-04-06T12:20:55;3.40;;;3.07;;
17852;SDS011;9052;53.494;14.376;2023-04-06T12:23:22;3.67;;;3.27;;
17852;SDS011;9052;53.494;14.376;2023-04-06T12:25:50;7.83;;;3.67;;
17852;SDS011;9052;53.494;14.376;2023-04-06T12:28:17;3.97;;;3.00;;
17852;SDS011;9052;53.494;14.376;2023-04-06T12:30:45;7.20;;;3.47;;
17852;SDS011;9052;53.494;14.376;2023-04-06T12:33:12;6.73;;;3.37;;
17852;SDS011;9052;53.494;14.376;2023-04-06T12:35:39;6.43;;;3.27;;
17852;SDS011;9052;53.494;14.376;2023-04-06T12:38:06;9.23;;;5.60;;
17852;SDS011;9052;53.494;14.376;2023-04-06T12:40:36;9.03;;;5.37;;
17852;SDS011;9052;53.494;14.376;2023-04-06T12:43:04;8.63;;;4.90;;
17852;SDS011;9052;53.494;14.376;2023-04-06T12:45:31;7.10;;;5.13;;
17852;SDS011;9052;53.494;14.376;2023-04-06T12:47:57;8.63;;;4.97;;
17852;SDS011;9052;53.494;14.376;2023-04-06T12:50:24;5.17;;;4.40;;
17852;SDS011;9052;53.494;14.376;2023-04-06T12:52:51;4.40;;;3.77;;
17852;SDS011;9052;53.494;14.376;2023-04-06T12:55:18;5.63;;;4.23;;
17852;SDS011;9052;53.494;14.376;2023-04-06T12:57:45;8.47;;;5.03;;
17852;SDS011;9052;53.494;14.376;2023-04-06T13:00:14;7.20;;;4.67;;
17852;SDS011;9052;53.494;14.376;2023-04-06T13:02:41;6.53;;;4.97;;
17852;SDS011;9052;53.494;14.376;2023-04-06T13:05:12;8.00;;;4.63;;
17852;SDS011;9052;53.494;14.376;2023-04-06T13:07:39;9.63;;;5.17;;
17852;SDS011;9052;53.494;14.376;2023-04-06T13:10:07;6.77;;;5.13;;
17852;SDS011;9052;53.494;14.376;2023-04-06T13:12:34;6.20;;;4.63;;
17852;SDS011;9052;53.494;14.376;2023-04-06T13:15:01;7.87;;;4.90;;
17852;SDS011;9052;53.494;14.376;2023-04-06T13:17:29;7.30;;;4.67;;
17852;SDS011;9052;53.494;14.376;2023-04-06T13:19:56;9.27;;;5.67;;
17852;SDS011;9052;53.494;14.376;2023-04-06T13:22:23;6.80;;;5.27;;
17852;SDS011;9052;53.494;14.376;2023-04-06T13:24:50;4.97;;;4.50;;
17852;SDS011;9052;53.494;14.376;2023-04-06T13:27:16;5.73;;;4.67;;
17852;SDS011;9052;53.494;14.376;2023-04-06T13:29:43;7.73;;;4.80;;
17852;SDS011;9052;53.494;14.376;2023-04-06T13:32:10;6.87;;;5.10;;
17852;SDS011;9052;53.494;14.376;2023-04-06T13:34:38;5.90;;;4.20;;
17852;SDS011;9052;53.494;14.376;2023-04-06T13:37:05;5.50;;;5.00;;
17852;SDS011;9052;53.494;14.376;2023-04-06T13:39:32;20.97;;;9.70;;
17852;SDS011;9052;53.494;14.376;2023-04-06T13:41:59;5.47;;;4.97;;
17852;SDS011;9052;53.494;14.376;2023-04-06T13:44:27;10.37;;;4.57;;
17852;SDS011;9052;53.494;14.376;2023-04-06T13:46:54;4.70;;;4.30;;
17852;SDS011;9052;53.494;14.376;2023-04-06T13:49:21;5.10;;;4.27;;
17852;SDS011;9052;53.494;14.376;2023-04-06T13:51:49;4.67;;;4.13;;
17852;SDS011;9052;53.494;14.376;2023-04-06T13:54:16;5.03;;;4.30;;
17852;SDS011;9052;53.494;14.376;2023-04-06T13:56:43;8.77;;;6.10;;
17852;SDS011;9052;53.494;14.376;2023-04-06T13:59:10;5.90;;;4.90;;
17852;SDS011;9052;53.494;14.376;2023-04-06T14:01:37;11.03;;;5.43;;
17852;SDS011;9052;53.494;14.376;2023-04-06T14:04:03;11.07;;;5.20;;
17852;SDS011;9052;53.494;14.376;2023-04-06T14:06:30;5.00;;;4.60;;
17852;SDS011;9052;53.494;14.376;2023-04-06T14:08:58;6.37;;;4.10;;
17852;SDS011;9052;53.494;14.376;2023-04-06T14:11:25;7.73;;;4.43;;
17852;SDS011;9052;53.494;14.376;2023-04-06T14:13:52;13.20;;;4.60;;
17852;SDS011;9052;53.494;14.376;2023-04-06T14:16:19;7.23;;;3.63;;
17852;SDS011;9052;53.494;14.376;2023-04-06T14:18:49;4.90;;;4.37;;
17852;SDS011;9052;53.494;14.376;2023-04-06T14:24:00;5.20;;;4.20;;
17852;SDS011;9052;53.494;14.376;2023-04-06T14:26:30;7.60;;;5.27;;
17852;SDS011;9052;53.494;14.376;2023-04-06T14:28:59;7.10;;;4.83;;
17852;SDS011;9052;53.494;14.376;2023-04-06T14:31:27;8.10;;;4.83;;
17852;SDS011;9052;53.494;14.376;2023-04-06T14:33:55;7.40;;;5.60;;
17852;SDS011;9052;53.494;14.376;2023-04-06T14:36:26;14.90;;;6.13;;
17852;SDS011;9052;53.494;14.376;2023-04-06T14:39:05;6.80;;;6.10;;
17852;SDS011;9052;53.494;14.376;2023-04-06T14:41:46;8.07;;;5.10;;
17852;SDS011;9052;53.494;14.376;2023-04-06T14:44:15;6.83;;;4.93;;
17852;SDS011;9052;53.494;14.376;2023-04-06T14:46:57;11.47;;;6.40;;